Time;durP1;ratioP1;P1;durP2;ratioP2;P2;SDS_P1;SDS_P2;PMS_P1;PMS_P2;Temp;Humidity;BMP_temperature;BMP_pressure;BME280_temperature;BME280_humidity;BME280_pressure;Samples;Min_cycle;Max_cycle;Signal;HPM_P1;HPM_P2
2023/08/07 00:00:31;;;;;;;8.50;2.13;;;;;;;12.96;100.00;101316.41;5089859;28;20392;-36
2023/08/07 00:02:56;;;;;;;6.63;1.67;;;;;;;13.01;100.00;101328.22;5090346;28;20052;-36
2023/08/07 00:05:22;;;;;;;6.23;1.50;;;;;;;13.02;100.00;101327.16;5089923;28;20727;-37
2023/08/07 00:07:47;;;;;;;7.53;1.92;;;;;;;13.00;100.00;101317.59;5090731;28;20035;-37
2023/08/07 00:10:13;;;;;;;6.68;2.10;;;;;;;12.97;100.00;101318.06;5082030;28;20024;-37
2023/08/07 00:12:38;;;;;;;6.28;1.60;;;;;;;12.93;100.00;101312.25;5076580;28;20040;-37
2023/08/07 00:15:04;;;;;;;4.88;1.60;;;;;;;12.99;100.00;101324.09;5076435;28;20032;-37
2023/08/07 00:17:29;;;;;;;6.72;2.10;;;;;;;12.99;100.00;101324.91;5076130;28;20032;-37
2023/08/07 00:19:55;;;;;;;6.00;1.70;;;;;;;12.99;100.00;101324.91;5076123;28;20024;-37
2023/08/07 00:22:20;;;;;;;7.95;1.73;;;;;;;12.94;100.00;101311.22;5076150;28;20114;-36
2023/08/07 00:24:46;;;;;;;8.30;1.63;;;;;;;12.99;100.00;101319.50;5076079;28;20039;-37
2023/08/07 00:27:12;;;;;;;7.20;1.92;;;;;;;12.98;100.00;101326.00;5076369;28;20028;-37
2023/08/07 00:29:37;;;;;;;;;;;;;;;13.04;100.00;101325.03;5076931;28;20420;-37
2023/08/07 00:32:03;;;;;;;4.57;1.40;;;;;;;12.94;100.00;101318.53;5076509;28;19923;-37
2023/08/07 00:34:29;;;;;;;6.05;1.60;;;;;;;13.00;100.00;101332.00;5076453;28;20036;-37
2023/08/07 00:36:54;;;;;;;6.15;1.70;;;;;;;12.98;100.00;101336.84;5076248;28;20445;-37
2023/08/07 00:39:20;;;;;;;5.43;1.65;;;;;;;12.98;100.00;101326.00;5075768;28;20052;-37
2023/08/07 00:41:45;;;;;;;6.05;1.88;;;;;;;12.93;100.00;101316.88;5076344;28;20024;-37
2023/08/07 00:44:10;;;;;;;9.80;1.80;;;;;;;12.97;100.00;101323.50;5076531;28;20056;-37
2023/08/07 00:46:38;;;;;;;10.63;2.05;;;;;;;13.00;100.00;101333.88;5075965;28;20039;-37
2023/08/07 00:49:04;;;;;;;5.85;1.75;;;;;;;13.00;100.00;101337.44;5075572;28;20047;-37
2023/08/07 00:51:30;;;;;;;;;;;;;;;13.04;100.00;101340.50;5076087;28;20033;-36
2023/08/07 00:53:55;;;;;;;6.65;2.22;;;;;;;12.97;100.00;101343.31;5075803;28;19909;-36
2023/08/07 00:56:22;;;;;;;7.78;1.88;;;;;;;12.92;100.00;101329.63;5076361;28;20043;-37
2023/08/07 00:58:48;;;;;;;7.07;2.05;;;;;;;12.95;100.00;101329.16;5075550;28;20048;-37
2023/08/07 01:01:14;;;;;;;7.10;1.50;;;;;;;12.88;100.00;101306.72;5075941;28;20429;-37
2023/08/07 01:03:39;;;;;;;;;;;;;;;13.00;100.00;101320.31;5076555;28;20025;-37
2023/08/07 01:06:05;;;;;;;8.20;1.65;;;;;;;12.95;100.00;101318.31;5075865;28;20007;-36
2023/08/07 01:08:30;;;;;;;9.68;1.63;;;;;;;12.95;100.00;101331.88;5075307;28;20032;-36
2023/08/07 01:11:21;;;;;;;10.52;2.00;;;;;;;12.94;100.00;101335.66;5075205;28;20058;-36
2023/08/07 01:14:04;;;;;;;7.25;2.60;;;;;;;12.96;100.00;101332.69;5075678;28;20369;-36
2023/08/07 01:16:47;;;;;;;7.95;1.73;;;;;;;12.96;100.00;101336.25;5076218;28;20124;-37
2023/08/07 01:19:31;;;;;;;6.47;2.03;;;;;;;12.99;100.00;101341.22;5075246;28;20101;-37
2023/08/07 01:22:07;;;;;;;11.48;2.08;;;;;;;12.94;100.00;101330.22;5074560;28;20024;-37
2023/08/07 01:24:33;;;;;;;9.70;2.00;;;;;;;13.01;100.00;101338.25;5074984;28;20020;-44
2023/08/07 01:27:10;;;;;;;9.73;2.00;;;;;;;13.04;100.00;101343.22;5074999;28;20036;-37
2023/08/07 01:30:06;;;;;;;9.18;2.13;;;;;;;13.06;100.00;101344.63;5074854;28;20028;-38
2023/08/07 01:32:46;;;;;;;8.55;2.03;;;;;;;13.07;100.00;101346.28;5075131;28;20050;-37
2023/08/07 01:35:15;;;;;;;9.07;2.30;;;;;;;13.07;100.00;101342.72;5074729;28;20024;-37
2023/08/07 01:37:42;;;;;;;8.25;2.22;;;;;;;13.09;100.00;101346.06;5074579;28;20477;-37
2023/08/07 01:40:09;;;;;;;9.40;3.15;;;;;;;13.07;100.00;101350.88;5074339;28;20035;-37
2023/08/07 01:42:38;;;;;;;8.55;2.13;;;;;;;13.09;100.00;101343.34;5075123;28;20035;-37
2023/08/07 01:45:06;;;;;;;8.02;2.35;;;;;;;13.08;100.00;101345.22;5074999;28;20082;-37
2023/08/07 01:47:32;;;;;;;7.30;1.80;;;;;;;13.04;100.00;101349.47;5074996;28;20377;-37
2023/08/07 01:49:57;;;;;;;;;;;;;;;13.14;100.00;101357.03;5074891;28;20024;-37
2023/08/07 01:52:23;;;;;;;7.25;2.33;;;;;;;13.05;100.00;101347.59;5075212;28;20453;-37
2023/08/07 01:54:48;;;;;;;6.80;1.90;;;;;;;13.07;100.00;101359.84;5074009;28;20032;-37
2023/08/07 01:57:13;;;;;;;7.47;2.20;;;;;;;13.06;100.00;101357.38;5074101;28;20085;-37
2023/08/07 01:59:39;;;;;;;7.82;1.77;;;;;;;12.99;100.00;101357.50;5074282;28;20495;-37
2023/08/07 02:02:04;;;;;;;7.22;2.25;;;;;;;12.93;100.00;101358.41;5074285;28;20053;-37
2023/08/07 02:04:29;;;;;;;7.47;1.92;;;;;;;12.98;100.00;101369.44;5074166;28;20029;-37
2023/08/07 02:06:55;;;;;;;6.65;2.25;;;;;;;12.90;100.00;101361.63;5074415;28;20044;-37
2023/08/07 02:09:21;;;;;;;6.63;1.88;;;;;;;12.91;100.00;101374.13;5074120;28;20054;-37
2023/08/07 02:11:46;;;;;;;7.30;1.90;;;;;;;12.92;100.00;101377.66;5074318;28;20035;-37
2023/08/07 02:14:11;;;;;;;6.90;1.83;;;;;;;12.87;100.00;101368.31;5074038;28;20064;-37
2023/08/07 02:16:37;;;;;;;8.88;2.15;;;;;;;12.88;100.00;101371.84;5074028;28;20047;-37
2023/08/07 02:19:02;;;;;;;6.88;2.22;;;;;;;12.86;100.00;101374.00;5073614;28;20029;-37
2023/08/07 02:21:27;;;;;;;8.27;2.10;;;;;;;12.84;100.00;101370.69;5074188;28;20028;-37
2023/08/07 02:23:53;;;;;;;7.43;2.03;;;;;;;12.84;100.00;101387.81;5073931;28;20794;-36
2023/08/07 02:26:18;;;;;;;9.98;3.20;;;;;;;12.77;100.00;101369.97;5074700;28;20453;-37
2023/08/07 02:28:43;;;;;;;8.63;2.40;;;;;;;12.82;100.00;101378.22;5073544;28;20059;-37
2023/08/07 02:31:09;;;;;;;11.40;2.53;;;;;;;12.83;100.00;101377.16;5073494;28;20040;-37
2023/08/07 02:33:34;;;;;;;7.53;2.30;;;;;;;12.82;100.00;101375.50;5073525;28;20267;-37
2023/08/07 02:35:59;;;;;;;7.50;1.80;;;;;;;12.78;100.00;101363.47;5073431;28;20262;-37
2023/08/07 02:38:25;;;;;;;8.07;2.17;;;;;;;12.80;100.00;101367.63;5073858;28;20029;-37
2023/08/07 02:40:51;;;;;;;11.02;2.95;;;;;;;12.80;100.00;101369.50;5073967;28;20032;-37
2023/08/07 02:43:16;;;;;;;6.27;2.10;;;;;;;12.82;100.00;101368.19;5074168;28;20377;-37
2023/08/07 02:45:41;;;;;;;9.68;2.47;;;;;;;12.84;100.00;101385.09;5073668;28;20261;-37
2023/08/07 02:48:07;;;;;;;9.23;2.50;;;;;;;12.86;100.00;101371.28;5073850;28;20082;-37
2023/08/07 02:50:32;;;;;;;9.23;2.80;;;;;;;12.82;100.00;101364.66;5074387;28;20033;-36
2023/08/07 02:53:01;;;;;;;7.32;2.17;;;;;;;12.87;100.00;101375.63;5073521;28;20258;-37
2023/08/07 02:55:27;;;;;;;8.48;2.47;;;;;;;12.87;100.00;101371.03;5073759;28;20021;-37
2023/08/07 02:57:52;;;;;;;8.18;2.60;;;;;;;12.84;100.00;101365.28;5074200;28;20094;-37
2023/08/07 03:00:18;;;;;;;7.20;2.53;;;;;;;12.85;100.00;101359.59;5074193;28;20021;-37
2023/08/07 03:02:43;;;;;;;7.95;2.40;;;;;;;12.88;100.00;101370.00;5074265;28;20170;-37
2023/08/07 03:05:09;;;;;;;5.32;2.42;;;;;;;12.81;100.00;101366.53;5073363;28;20057;-37
2023/08/07 03:07:34;;;;;;;8.75;2.60;;;;;;;12.87;100.00;101373.75;5073755;28;20024;-37
2023/08/07 03:09:59;;;;;;;7.33;2.43;;;;;;;12.89;100.00;101366.22;5073091;28;20032;-37
2023/08/07 03:12:25;;;;;;;6.32;2.53;;;;;;;12.91;100.00;101376.84;5073910;28;20794;-37
2023/08/07 03:14:50;;;;;;;6.18;2.17;;;;;;;12.89;100.00;101371.66;5073608;28;20031;-38
2023/08/07 03:17:15;;;;;;;7.78;2.20;;;;;;;12.90;100.00;101372.47;5073968;28;20040;-37
2023/08/07 03:19:43;;;;;;;7.33;2.27;;;;;;;12.91;100.00;101370.56;5073200;28;20035;-37
2023/08/07 03:22:09;;;;;;;7.93;2.47;;;;;;;12.88;100.00;101358.28;5073046;28;20284;-37
2023/08/07 03:24:34;;;;;;;5.70;2.25;;;;;;;12.95;100.00;101364.44;5073166;28;20062;-37
2023/08/07 03:26:59;;;;;;;8.50;2.40;;;;;;;12.95;100.00;101367.16;5073033;28;20063;-37
2023/08/07 03:29:25;;;;;;;11.02;2.58;;;;;;;12.93;100.00;101358.41;5073426;28;20032;-37
2023/08/07 03:31:50;;;;;;;6.93;2.40;;;;;;;12.96;100.00;101354.41;5073217;28;20384;-37
2023/08/07 03:34:15;;;;;;;7.35;2.40;;;;;;;12.97;100.00;101356.06;5073096;28;20457;-37
2023/08/07 03:36:41;;;;;;;8.57;2.30;;;;;;;12.91;100.00;101352.41;5074001;28;20029;-37
2023/08/07 03:39:06;;;;;;;8.10;2.63;;;;;;;12.91;100.00;101346.16;5073086;28;20021;-37
2023/08/07 03:41:32;;;;;;;9.95;2.67;;;;;;;12.98;100.00;101358.56;5073443;28;20358;-37
2023/08/07 03:43:57;;;;;;;8.40;2.53;;;;;;;12.93;100.00;101355.69;5073580;28;20107;-37
2023/08/07 03:46:22;;;;;;;4.50;2.10;;;;;;;12.99;100.00;101359.38;5076575;28;20381;-37
2023/08/07 03:48:48;;;;;;;6.75;2.08;;;;;;;13.00;100.00;101359.16;5076791;28;20059;-37
2023/08/07 03:51:14;;;;;;;8.27;2.33;;;;;;;13.01;100.00;101362.69;5076805;28;20028;-37
2023/08/07 03:53:40;;;;;;;7.75;2.35;;;;;;;13.00;100.00;101356.44;5077468;28;20074;-37
2023/08/07 03:56:05;;;;;;;;;;;;;;;13.07;100.00;101362.56;5077060;28;20392;-37
2023/08/07 03:58:30;;;;;;;7.43;2.03;;;;;;;13.00;100.00;101364.56;5076269;28;19987;-37
2023/08/07 04:00:56;;;;;;;7.03;2.50;;;;;;;13.03;100.00;101366.84;5076815;28;20259;-37
2023/08/07 04:03:21;;;;;;;5.40;1.98;;;;;;;13.05;100.00;101358.44;5076486;28;20477;-37
2023/08/07 04:05:47;;;;;;;10.15;3.00;;;;;;;13.01;100.00;101357.25;5076730;28;20035;-37
2023/08/07 04:08:12;;;;;;;7.03;2.05;;;;;;;13.06;100.00;101360.91;5076956;28;20033;-37
2023/08/07 04:10:38;;;;;;;6.73;2.10;;;;;;;13.08;100.00;101357.97;5077216;28;20032;-37
2023/08/07 04:13:03;;;;;;;7.17;2.10;;;;;;;13.10;100.00;101364.00;5076375;28;20354;-37
2023/08/07 04:15:29;;;;;;;4.60;2.08;;;;;;;13.09;100.00;101365.88;5076298;28;20263;-37
2023/08/07 04:17:54;;;;;;;11.77;2.63;;;;;;;13.08;100.00;101358.81;5076447;28;20033;-37
2023/08/07 04:20:20;;;;;;;6.28;2.15;;;;;;;13.08;100.00;101358.81;5076154;28;20412;-37
2023/08/07 04:22:46;;;;;;;5.03;2.00;;;;;;;13.02;100.00;101354.28;5076139;28;20039;-37
2023/08/07 04:25:12;;;;;;;7.35;1.73;;;;;;;13.08;100.00;101364.25;5076082;28;20040;-37
2023/08/07 04:27:38;;;;;;;11.20;2.22;;;;;;;13.09;100.00;101365.06;5076968;28;20024;-37
2023/08/07 04:30:03;;;;;;;;;;;;;;;13.12;100.00;101368.13;5077274;28;20404;-37
2023/08/07 04:32:28;;;;;;;4.60;1.80;;;;;;;13.07;100.00;101380.75;5076802;28;19908;-37
2023/08/07 04:34:54;;;;;;;5.90;2.13;;;;;;;13.02;100.00;101364.34;5076472;28;20105;-37
2023/08/07 04:37:19;;;;;;;5.78;1.90;;;;;;;13.06;100.00;101377.19;5075881;28;20282;-37
2023/08/07 04:39:45;;;;;;;5.75;1.80;;;;;;;13.07;100.00;101378.03;5075772;28;20028;-38
2023/08/07 04:42:10;;;;;;;5.63;1.85;;;;;;;13.03;100.00;101377.69;5075583;28;20102;-37
2023/08/07 04:44:35;;;;;;;5.63;1.95;;;;;;;13.01;100.00;101374.38;5076321;28;20060;-37
2023/08/07 04:47:01;;;;;;;5.85;2.45;;;;;;;13.01;100.00;101365.41;5076079;28;20028;-37
2023/08/07 04:49:26;;;;;;;5.25;1.63;;;;;;;13.06;100.00;101376.38;5076221;28;20028;-37
2023/08/07 04:51:51;;;;;;;6.70;2.10;;;;;;;13.06;100.00;101381.81;5075464;28;20029;-37
2023/08/07 04:54:17;;;;;;;6.13;2.10;;;;;;;12.98;100.00;101368.56;5075324;28;20366;-36
2023/08/07 04:56:44;;;;;;;8.13;2.00;;;;;;;13.05;100.00;101381.00;5075701;28;20096;-37
2023/08/07 04:59:09;;;;;;;4.88;1.67;;;;;;;12.99;100.00;101364.81;5075822;28;20045;-37
2023/08/07 05:01:35;;;;;;;4.75;1.75;;;;;;;13.05;100.00;101381.00;5075455;28;20078;-36
2023/08/07 05:04:01;;;;;;;6.68;2.33;;;;;;;13.09;100.00;101392.22;5075165;28;20028;-36
2023/08/07 05:06:26;;;;;;;6.68;1.75;;;;;;;13.02;100.00;101386.03;5075612;28;20024;-37
2023/08/07 05:08:52;;;;;;;5.85;1.75;;;;;;;13.09;100.00;101397.66;5075320;28;20028;-36
2023/08/07 05:11:17;;;;;;;7.18;1.65;;;;;;;13.04;100.00;101384.78;5074977;28;20433;-36
2023/08/07 05:13:43;;;;;;;6.65;1.65;;;;;;;13.12;100.00;101391.72;5074772;28;20085;-37
2023/08/07 05:16:08;;;;;;;5.88;1.48;;;;;;;13.06;100.00;101382.63;5075190;28;20131;-37
2023/08/07 05:18:33;;;;;;;5.53;1.70;;;;;;;13.12;100.00;101392.56;5074805;28;20032;-37
2023/08/07 05:20:58;;;;;;;6.23;1.77;;;;;;;13.14;100.00;101398.59;5075613;28;20279;-37
2023/08/07 05:23:24;;;;;;;;;;;;;;;13.19;100.00;101402.50;5075427;28;20024;-37
2023/08/07 05:25:49;;;;;;;5.25;1.48;;;;;;;13.15;100.00;101397.53;5074945;28;19909;-37
2023/08/07 05:28:14;;;;;;;9.05;2.28;;;;;;;13.09;100.00;101403.06;5074892;28;20032;-37
2023/08/07 05:30:40;;;;;;;7.53;1.80;;;;;;;13.05;100.00;101399.16;5074615;28;20032;-37
2023/08/07 05:33:05;;;;;;;5.43;1.77;;;;;;;13.09;100.00;101409.31;5074779;28;20028;-37
2023/08/07 05:35:30;;;;;;;;;;;;;;;13.23;100.00;101428.16;5074868;28;20032;-37
2023/08/07 05:37:56;;;;;;;5.97;1.70;;;;;;;13.17;100.00;101439.91;5074924;28;20364;-36
2023/08/07 05:40:21;;;;;;;9.20;2.33;;;;;;;13.07;100.00;101424.19;5074351;28;20761;-37
2023/08/07 05:42:46;;;;;;;9.73;2.87;;;;;;;13.06;100.00;101425.25;5075231;28;20385;-37
2023/08/07 05:45:12;;;;;;;7.15;2.40;;;;;;;12.99;100.00;101419.94;5074566;28;20274;-37
2023/08/07 05:47:37;;;;;;;4.80;1.85;;;;;;;13.09;100.00;101452.78;5074886;28;20021;-37
2023/08/07 05:50:03;;;;;;;6.73;1.90;;;;;;;13.02;100.00;101435.75;5074472;28;20039;-37
2023/08/07 05:52:28;;;;;;;7.28;1.70;;;;;;;13.07;100.00;101448.63;5074089;28;20338;-37
2023/08/07 05:54:54;;;;;;;9.27;2.42;;;;;;;13.02;100.00;101443.88;5074362;28;20081;-37
2023/08/07 05:57:19;;;;;;;4.80;1.70;;;;;;;13.10;100.00;101453.59;5074083;28;20083;-37
2023/08/07 05:59:45;;;;;;;11.10;2.72;;;;;;;13.07;100.00;101446.72;5074909;28;20056;-37
2023/08/07 06:02:13;;;;;;;8.07;1.70;;;;;;;13.01;100.00;101441.41;5074259;28;20142;-37
2023/08/07 06:04:39;;;;;;;10.63;2.70;;;;;;;13.08;100.00;101461.97;5073462;28;20421;-37
2023/08/07 06:07:05;;;;;;;;;;;;;;;13.16;100.00;101458.09;5074324;28;20047;-37
2023/08/07 06:09:30;;;;;;;9.07;2.05;;;;;;;13.14;100.00;101460.22;5073529;28;20010;-37
2023/08/07 06:11:55;;;;;;;6.47;2.00;;;;;;;13.14;100.00;101452.06;5074037;28;20063;-37
2023/08/07 06:14:21;;;;;;;12.33;2.80;;;;;;;13.16;100.00;101468.94;5074312;28;20094;-37
2023/08/07 06:16:46;;;;;;;11.75;2.30;;;;;;;13.17;100.00;101467.88;5074535;28;20294;-37
2023/08/07 06:19:11;;;;;;;12.20;2.70;;;;;;;13.18;100.00;101461.41;5073914;28;20088;-37
2023/08/07 06:21:37;;;;;;;12.23;2.25;;;;;;;13.14;100.00;101460.22;5073635;28;20056;-37
2023/08/07 06:24:02;;;;;;;6.68;1.92;;;;;;;13.18;100.00;101475.00;5074122;28;20077;-37
2023/08/07 06:26:28;;;;;;;9.70;2.10;;;;;;;13.19;100.00;101478.53;5074710;28;20461;-37
2023/08/07 06:28:53;;;;;;;7.55;2.22;;;;;;;13.14;100.00;101462.94;5074089;28;20032;-37
2023/08/07 06:31:18;;;;;;;10.23;2.33;;;;;;;13.18;100.00;101461.41;5073836;28;20571;-36
2023/08/07 06:33:44;;;;;;;9.48;2.30;;;;;;;13.23;100.00;101471.63;5074345;28;20073;-37
2023/08/07 06:36:09;;;;;;;8.10;2.13;;;;;;;13.32;100.00;101479.19;5074058;28;20028;-36
2023/08/07 06:38:35;;;;;;;7.15;2.17;;;;;;;13.33;100.00;101469.16;5073659;28;20484;-37
2023/08/07 06:41:01;;;;;;;8.85;2.10;;;;;;;13.42;100.00;101475.03;5074500;28;20025;-37
2023/08/07 06:43:26;;;;;;;11.40;2.05;;;;;;;13.59;100.00;101490.44;5073613;28;20457;-37
2023/08/07 06:45:56;;;;;;;7.05;1.50;;;;;;;13.67;100.00;101491.97;5073379;28;20028;-37
2023/08/07 06:48:21;;;;;;;6.75;1.77;;;;;;;13.70;100.00;101485.22;5073658;28;20051;-37
2023/08/07 06:50:47;;;;;;;;;;;;;;;13.84;100.00;101497.53;5073693;28;20465;-37
2023/08/07 06:53:13;;;;;;;6.55;1.67;;;;;;;13.84;100.00;101502.97;5073815;28;20327;-37
2023/08/07 06:55:38;;;;;;;;;;;;;;;13.93;100.00;101493.38;5073906;28;20115;-37
2023/08/07 06:58:03;;;;;;;4.87;1.50;;;;;;;13.87;100.00;101499.78;5073180;28;19916;-37
2023/08/07 07:00:29;;;;;;;8.48;1.73;;;;;;;13.87;100.00;101491.63;5073494;28;20275;-37
2023/08/07 07:02:55;;;;;;;5.95;1.65;;;;;;;13.85;100.00;101504.59;5073488;28;20448;-37
2023/08/07 07:05:20;;;;;;;;;;;;;;;13.93;100.00;101504.25;5073874;28;20024;-36
2023/08/07 07:07:45;;;;;;;7.40;2.03;;;;;;;13.80;100.00;101505.31;5073125;28;19913;-36
2023/08/07 07:10:11;;;;;;;4.95;1.35;;;;;;;13.84;100.00;101519.28;5073443;28;20270;-36
2023/08/07 07:12:36;;;;;;;7.38;2.03;;;;;;;13.78;100.00;101522.94;5073651;28;20031;-36
2023/08/07 07:15:01;;;;;;;;;;;;;;;13.86;100.00;101538.91;5073794;28;20102;-36
2023/08/07 07:17:27;;;;;;;6.32;1.60;;;;;;;13.70;100.00;101531.44;5074118;28;20059;-36
2023/08/07 07:19:53;;;;;;;7.47;1.70;;;;;;;13.68;100.00;101553.41;5074506;28;20115;-37
2023/08/07 07:22:18;;;;;;;9.63;2.38;;;;;;;13.55;100.00;101534.59;5078157;28;20250;-37
2023/08/07 07:24:44;;;;;;;6.78;1.92;;;;;;;13.58;100.00;101545.84;5077054;28;20412;-37
2023/08/07 07:27:09;;;;;;;6.38;2.20;;;;;;;13.46;100.00;101525.97;5077311;28;20063;-36
2023/08/07 07:29:34;;;;;;;6.22;1.98;;;;;;;13.61;100.00;101550.78;5077226;28;20030;-36
2023/08/07 07:32:00;;;;;;;7.18;1.90;;;;;;;13.56;100.00;101545.22;5077257;28;20479;-36
2023/08/07 07:34:25;;;;;;;5.75;1.80;;;;;;;13.60;100.00;101548.31;5077657;28;20063;-36
2023/08/07 07:36:51;;;;;;;;;;;;;;;13.68;100.00;101561.56;5077489;28;20029;-37
2023/08/07 07:39:16;;;;;;;6.43;1.77;;;;;;;13.54;100.00;101569.09;5076876;28;20357;-37
2023/08/07 07:41:42;;;;;;;4.63;1.70;;;;;;;13.47;100.00;101568.41;5077007;28;20086;-37
2023/08/07 07:44:07;;;;;;;4.38;1.52;;;;;;;13.47;100.00;101573.81;5076901;28;20036;-37
2023/08/07 07:46:33;;;;;;;;;;;;;;;13.53;100.00;101577.50;5077622;28;20119;-37
2023/08/07 07:48:59;;;;;;;4.70;1.70;;;;;;;13.44;100.00;101584.31;5076473;28;19962;-37
2023/08/07 07:51:24;;;;;;;3.47;1.38;;;;;;;13.44;100.00;101573.47;5077295;28;20119;-37
2023/08/07 07:53:50;;;;;;;4.18;1.30;;;;;;;13.47;100.00;101572.97;5076717;28;20384;-37
2023/08/07 07:56:16;;;;;;;4.18;1.50;;;;;;;13.43;100.00;101559.03;5076747;28;20028;-37
2023/08/07 07:58:41;;;;;;;;;;;;;;;13.65;100.00;101578.34;5076953;28;20122;-37
2023/08/07 08:01:08;;;;;;;5.03;2.08;;;;;;;13.52;100.00;101554.94;5076887;28;19920;-37
2023/08/07 08:03:34;;;;;;;8.20;1.65;;;;;;;13.73;100.00;101577.19;5076454;28;20056;-37
2023/08/07 08:05:59;;;;;;;5.57;1.77;;;;;;;13.74;100.00;101566.06;5076484;28;20111;-37
2023/08/07 08:08:25;;;;;;;4.38;1.50;;;;;;;13.90;100.00;101573.50;5076445;28;20054;-36
2023/08/07 08:10:51;;;;;;;;;;;;;;;14.03;100.00;101583.34;5076911;28;20444;-36
2023/08/07 08:13:17;;;;;;;6.28;1.90;;;;;;;13.99;100.00;101575.91;5076950;28;19959;-37
2023/08/07 08:15:42;;;;;;;4.55;1.75;;;;;;;14.09;100.00;101570.69;5076314;28;20431;-37
2023/08/07 08:18:08;;;;;;;4.85;1.80;;;;;;;14.27;100.00;101586.06;5075898;28;20074;-37
2023/08/07 08:20:33;;;;;;;5.65;1.85;;;;;;;14.46;100.00;101586.78;5075884;28;20083;-37
2023/08/07 08:22:59;;;;;;;6.60;2.20;;;;;;;14.57;100.00;101566.91;5076544;28;20033;-37
2023/08/07 08:25:24;;;;;;;;;;;;;;;14.83;100.00;101579.13;5076538;28;20427;-37
2023/08/07 08:27:51;;;;;;;6.70;2.35;;;;;;;14.95;100.00;101579.94;5076191;28;19923;-37
2023/08/07 08:30:17;;;;;;;7.15;1.92;;;;;;;15.04;100.00;101581.22;5075318;28;20025;-37
2023/08/07 08:32:43;;;;;;;7.25;2.05;;;;;;;15.20;100.00;101583.13;5076518;28;20032;-37
2023/08/07 08:35:08;;;;;;;5.90;1.88;;;;;;;15.38;100.00;101586.75;5075976;28;20069;-37
2023/08/07 08:37:34;;;;;;;5.25;1.60;;;;;;;15.37;100.00;101582.34;5076224;28;20151;-37
2023/08/07 08:39:59;;;;;;;7.88;1.88;;;;;;;15.39;100.00;101591.13;5075780;28;20029;-37
2023/08/07 08:42:24;;;;;;;7.32;1.77;;;;;;;15.33;100.00;101583.94;5076409;28;20062;-37
2023/08/07 08:44:54;;;;;;;;;;;;;;;15.43;100.00;101597.75;5075911;28;20099;-37
2023/08/07 08:47:21;;;;;;;9.15;2.22;;;;;;;15.32;100.00;101604.06;5076533;28;20007;-38
2023/08/07 08:49:50;;;;;;;6.25;1.60;;;;;;;15.31;100.00;101602.41;5075409;28;20480;-37
2023/08/07 08:52:16;;;;;;;7.30;2.03;;;;;;;15.38;100.00;101601.19;5075920;28;20530;-37
2023/08/07 08:54:42;;;;;;;;;;;;;;;15.58;100.00;101608.91;5075992;28;20111;-37
2023/08/07 08:57:09;;;;;;;6.43;2.05;;;;;;;15.69;100.00;101604.50;5076107;28;19960;-37
2023/08/07 08:59:34;;;;;;;11.00;1.95;;;;;;;15.80;100.00;101598.13;5075951;28;20131;-37
2023/08/07 09:01:59;;;;;;;5.35;1.60;;;;;;;16.04;100.00;101598.78;5076319;28;20103;-37
2023/08/07 09:04:25;;;;;;;;;;;;;;;16.22;100.00;101609.44;5075523;28;20029;-37
2023/08/07 09:06:50;;;;;;;6.90;1.60;;;;;;;16.21;100.00;101602.34;5075449;28;19908;-37
2023/08/07 09:09:17;;;;;;;3.75;1.60;;;;;;;16.43;100.00;101613.28;5075326;28;20086;-37
2023/08/07 09:11:45;;;;;;;4.88;1.50;;;;;;;16.50;100.00;101607.66;5076088;28;20028;-37
2023/08/07 09:14:15;;;;;;;6.93;1.65;;;;;;;16.67;100.00;101611.16;5074931;28;20033;-37
2023/08/07 09:16:40;;;;;;;5.72;1.75;;;;;;;16.82;100.00;101604.28;5075739;28;20020;-37
2023/08/07 09:19:06;;;;;;;;;;;;;;;16.94;100.00;101614.00;5075468;28;20541;-37
2023/08/07 09:21:31;;;;;;;4.93;1.45;;;;;;;16.77;100.00;101620.59;5074840;28;20007;-37
2023/08/07 09:23:57;;;;;;;;;;;;;;;16.81;100.00;101619.84;5075127;28;20021;-37
2023/08/07 09:26:26;;;;;;;6.93;2.13;;;;;;;16.63;98.11;101623.66;5074690;28;19912;-37
2023/08/07 09:28:53;;;;;;;5.80;1.60;;;;;;;16.50;96.43;101624.03;5074653;28;20289;-37
2023/08/07 09:31:19;;;;;;;5.78;1.67;;;;;;;16.40;95.88;101632.91;5075447;28;20056;-37
2023/08/07 09:33:46;;;;;;;;;;;;;;;16.42;95.17;101632.66;5075212;28;20039;-37
2023/08/07 09:36:11;;;;;;;5.70;1.48;;;;;;;16.47;91.73;101630.00;5074491;28;20409;-37
2023/08/07 09:38:37;;;;;;;;;;;;;;;16.66;92.12;101638.72;5075093;28;20028;-37
2023/08/07 09:41:05;;;;;;;6.15;1.50;;;;;;;16.70;90.39;101616.13;5075291;28;20078;-37
2023/08/07 09:43:37;;;;;;;7.70;1.30;;;;;;;17.00;90.89;101628.53;5073990;28;20056;-37
2023/08/07 09:46:06;;;;;;;6.18;2.20;;;;;;;17.17;89.21;101614.78;5074909;28;20025;-37
2023/08/07 09:48:38;;;;;;;7.40;2.22;;;;;;;17.39;88.99;101625.69;5074545;28;20028;-37
2023/08/07 09:51:03;;;;;;;5.65;1.27;;;;;;;17.51;83.87;101629.09;5074775;28;20028;-37
2023/08/07 09:53:29;;;;;;;;;;;;;;;17.65;83.55;101630.31;5075434;28;20055;-37
2023/08/07 09:55:55;;;;;;;4.20;1.40;;;;;;;17.60;81.55;101627.53;5074628;28;19912;-38
2023/08/07 09:58:20;;;;;;;;;;;;;;;17.77;86.79;101638.41;5074338;28;20058;-37
2023/08/07 10:00:50;;;;;;;4.57;1.27;;;;;;;17.78;82.94;101639.25;5074790;28;19916;-37
2023/08/07 10:03:17;;;;;;;9.10;1.35;;;;;;;17.87;82.25;101640.41;5075089;28;20028;-37
2023/08/07 10:05:43;;;;;;;4.82;1.13;;;;;;;17.90;77.36;101631.66;5074411;28;20024;-37
2023/08/07 10:08:10;;;;;;;4.70;1.30;;;;;;;18.01;81.62;101627.94;5073945;28;20028;-37
2023/08/07 10:10:37;;;;;;;4.70;1.83;;;;;;;18.07;82.95;101628.81;5074374;28;20040;-37
2023/08/07 10:13:03;;;;;;;3.90;1.17;;;;;;;18.20;78.62;101642.03;5074916;28;20025;-37
2023/08/07 10:15:29;;;;;;;;;;;;;;;18.35;83.20;101652.25;5074730;28;20480;-37
2023/08/07 10:17:55;;;;;;;4.07;1.38;;;;;;;18.24;77.54;101645.91;5074178;28;19959;-37
2023/08/07 10:20:21;;;;;;;;;;;;;;;18.44;78.82;101642.47;5074317;28;20469;-37
2023/08/07 10:22:47;;;;;;;6.05;1.80;;;;;;;18.20;74.88;101647.50;5074769;28;20259;-37
2023/08/07 10:25:13;;;;;;;3.85;1.13;;;;;;;18.08;72.79;101655.09;5074148;28;20465;-37
2023/08/07 10:27:39;;;;;;;;;;;;;;;18.27;79.50;101651.69;5074885;28;20032;-37
2023/08/07 10:30:09;;;;;;;5.50;1.45;;;;;;;18.35;75.19;101644.91;5074072;28;19943;-38
2023/08/07 10:32:36;;;;;;;2.65;0.95;;;;;;;18.51;70.36;101662.25;5074906;28;20036;-38
2023/08/07 10:35:05;;;;;;;3.30;1.02;;;;;;;18.60;70.63;101654.38;5074014;28;20558;-38
2023/08/07 10:37:43;;;;;;;5.43;1.50;;;;;;;18.75;71.39;101660.78;5073508;28;20036;-38
2023/08/07 10:40:11;;;;;;;4.13;1.52;;;;;;;18.72;67.82;101650.34;5073712;28;20039;-38
2023/08/07 10:42:54;;;;;;;5.15;1.67;;;;;;;18.61;71.74;101667.78;5074545;28;20117;-38
2023/08/07 10:45:22;;;;;;;5.20;1.50;;;;;;;18.57;70.38;101669.41;5073676;28;20415;-38
2023/08/07 10:48:21;;;;;;;4.07;1.00;;;;;;;18.79;71.60;101658.34;5073622;28;20103;-37
2023/08/07 10:50:57;;;;;;;4.47;1.10;;;;;;;18.96;69.27;101667.19;5069405;28;20040;-37
2023/08/07 10:53:28;;;;;;;4.20;1.30;;;;;;;18.99;67.07;101655.69;5073983;28;20025;-37
2023/08/07 10:55:57;;;;;;;2.97;1.20;;;;;;;19.09;70.95;101665.88;5074066;28;20032;-37
2023/08/07 10:58:26;;;;;;;4.10;1.20;;;;;;;19.13;65.62;101663.41;5073911;28;20060;-37
2023/08/07 11:01:12;;;;;;;4.10;1.10;;;;;;;19.21;67.27;101669.19;5073473;28;20020;-37
2023/08/07 11:03:42;;;;;;;3.83;1.60;;;;;;;19.46;68.46;101667.63;5073392;28;20484;-37
2023/08/07 11:06:10;;;;;;;4.55;1.48;;;;;;;19.41;68.97;101670.34;5073403;28;20495;-37
2023/08/07 11:08:36;;;;;;;5.32;1.52;;;;;;;19.19;66.48;101676.06;5073484;28;20055;-37
2023/08/07 11:11:05;;;;;;;4.78;1.30;;;;;;;19.11;68.39;101660.94;5074209;28;20028;-37
2023/08/07 11:13:31;;;;;;;4.32;1.52;;;;;;;19.14;66.74;101668.63;5073948;28;20032;-37
2023/08/07 11:15:56;;;;;;;;;;;;;;;19.40;71.75;101676.94;5073762;28;20032;-37
2023/08/07 11:18:22;;;;;;;7.25;1.25;;;;;;;19.24;65.09;101674.16;5073884;28;20028;-37
2023/08/07 11:20:48;;;;;;;;;;;;;;;19.40;65.65;101672.28;5073622;28;20029;-37